Telford, Tennessee
Current Conditions -  °F | °C
As of 12:53 PM on Thursday 30 Oct 2014 (Local Time) from KTRI Reporting Station
Scattered Clouds Scattered Clouds  
Wind Chill: 54°   Ceiling: Unl
Heat Index: 54°   Visibility: 10mi
Dew Point: 41°   Wind: 5mph
Humidity: 62%   Direction: NA
Pressure: 30.1"   Gusts: NA
Location:  36.25°N, 82.55°W
Report Text: KTRI 301653Z VRB04KT 10SM SCT010 12/05 A3010 RMK AO2 SLP183 T01220050
Loading
Personal Weather Stations






























Interactive Weather Map
Tropical Storm Tracking
New forecast layout! Learn more

10-Day Weather Forecast

Advertisements
Track Severe Weather on mobile